Terminal Aerodrome Forecast
Issued by NWS

Home | Current Version | Previous Version | Text Only | Print | Product List | Glossary On
Versions: 1 2 3 4 5 6 7 8 9 10 11 12 13 14 15 16 17 18 19 20 21 22 23 24 25 26 27 28 29
000
FTUS42 KRAH 010531
TAFRWI
TAF
KRWI 010531Z 0106/0206 10004KT P6SM SCT045 OVC100
     FM011600 07008G15KT P6SM -RA OVC040
      TEMPO 0118/0121 VRB15G28KT 3SM -TSRA BR SCT015 BKN030CB
     FM020000 04009KT 3SM -SHRA BR BKN005 OVC018=

USA.gov is the U.S. government's official web portal to all federal, state and local government web resources and services.